Time;durP1;ratioP1;P1;durP2;ratioP2;P2;SDS_P1;SDS_P2;PMS_P1;PMS_P2;Temp;Humidity;BMP_temperature;BMP_pressure;BME280_temperature;BME280_humidity;BME280_pressure;Samples;Min_cycle;Max_cycle;Signal;HPM_P1;HPM_P2
2021/03/23 00:01:59;;;;;;;0.30;0.22;;;8.80;64.90;;;;;;20718556;28;20049;-77
2021/03/23 00:12:00;;;;;;;0.00;0.00;;;8.80;64.90;;;;;;20733477;28;20041;-77
2021/03/23 00:22:00;;;;;;;0.10;0.10;;;8.80;64.90;;;;;;20716869;28;20057;-77
2021/03/23 00:32:05;;;;;;;2.10;0.43;;;8.90;65.00;;;;;;20748220;28;20296;-77
2021/03/23 00:42:06;;;;;;;0.55;0.20;;;8.80;64.90;;;;;;20853539;28;20036;-77
2021/03/23 00:52:08;;;;;;;1.75;0.90;;;8.80;65.00;;;;;;20910564;28;20432;-77
2021/03/23 01:02:09;;;;;;;0.00;0.00;;;8.90;65.00;;;;;;20894366;28;20029;-77
2021/03/23 01:12:11;;;;;;;0.10;0.10;;;8.90;65.00;;;;;;20893335;28;20514;-78
2021/03/23 01:22:12;;;;;;;0.00;0.00;;;8.80;65.00;;;;;;20891038;28;20505;-77
2021/03/23 01:32:12;;;;;;;0.00;0.00;;;8.80;65.00;;;;;;20875178;28;20033;-77
2021/03/23 01:42:14;;;;;;;0.43;0.15;;;8.80;65.00;;;;;;20891185;28;20453;-77
2021/03/23 01:52:18;;;;;;;0.15;0.15;;;8.80;65.00;;;;;;20874192;28;20295;-76
2021/03/23 02:02:22;;;;;;;0.13;0.10;;;8.80;65.10;;;;;;20907323;28;20048;-76
2021/03/23 02:12:28;;;;;;;0.00;0.00;;;8.80;65.10;;;;;;20906572;28;20502;-77
2021/03/23 02:22:33;;;;;;;5.93;0.30;;;8.80;65.30;;;;;;20857404;28;20053;-77
2021/03/23 02:32:34;;;;;;;0.30;0.30;;;8.80;65.30;;;;;;20897101;28;20035;-77
2021/03/23 02:42:35;;;;;;;0.20;0.10;;;8.80;65.40;;;;;;20824628;28;20120;-77
2021/03/23 02:52:36;;;;;;;0.08;0.08;;;8.80;65.40;;;;;;20820982;28;20037;-77
2021/03/23 03:02:36;;;;;;;0.35;0.25;;;8.80;65.40;;;;;;20821494;28;20049;-77
2021/03/23 03:12:37;;;;;;;0.52;0.20;;;8.80;65.50;;;;;;20819634;28;20292;-77
2021/03/23 03:22:39;;;;;;;0.10;0.10;;;8.80;65.50;;;;;;20835773;28;20044;-77
2021/03/23 03:32:39;;;;;;;0.15;0.10;;;8.80;65.50;;;;;;20818353;28;20487;-78
2021/03/23 03:42:40;;;;;;;1.55;0.10;;;8.90;66.20;;;;;;20816552;28;20439;-77
2021/03/23 03:52:40;;;;;;;0.00;0.00;;;8.80;65.50;;;;;;20833431;28;20141;-77
2021/03/23 04:02:41;;;;;;;0.05;0.05;;;8.80;65.50;;;;;;20799733;28;20336;-77
2021/03/23 04:12:42;;;;;;;0.10;0.10;;;8.80;65.60;;;;;;20815655;28;20045;-77
2021/03/23 04:22:42;;;;;;;0.05;0.03;;;8.80;65.60;;;;;;20815185;28;20396;-76
2021/03/23 04:32:43;;;;;;;0.00;0.00;;;8.80;65.60;;;;;;20813239;28;20053;-77
2021/03/23 04:42:43;;;;;;;0.00;0.00;;;8.80;65.60;;;;;;20820707;28;20464;-77
2021/03/23 04:52:45;;;;;;;0.20;0.10;;;8.90;65.80;;;;;;20811212;28;20045;-77
2021/03/23 05:02:45;;;;;;;0.88;0.10;;;8.80;65.70;;;;;;20811691;28;20342;-77
2021/03/23 05:12:46;;;;;;;0.10;0.00;;;8.80;65.70;;;;;;20794414;28;20041;-77
2021/03/23 05:22:47;;;;;;;0.10;0.10;;;8.80;65.80;;;;;;20827033;28;20346;-77
2021/03/23 05:32:47;;;;;;;0.57;0.20;;;8.80;65.90;;;;;;20793559;28;20048;-77
2021/03/23 05:43:05;;;;;;;1.13;0.28;;;8.80;66.00;;;;;;20776353;28;20119;-77
2021/03/23 05:53:17;;;;;;;0.10;0.10;;;8.80;66.00;;;;;;20777349;28;20196;-77
2021/03/23 06:03:45;;;;;;;0.10;0.10;;;8.80;66.00;;;;;;20793028;28;20033;-77
2021/03/23 06:13:47;;;;;;;0.10;0.10;;;8.80;66.00;;;;;;20839940;28;20195;-77
2021/03/23 06:23:50;;;;;;;3.78;1.40;;;8.80;66.10;;;;;;20853861;28;20033;-78
2021/03/23 06:33:51;;;;;;;0.60;0.60;;;8.80;66.20;;;;;;20826440;28;20542;-78
2021/03/23 06:43:59;;;;;;;0.35;0.35;;;8.80;66.20;;;;;;20796312;28;20074;-79
2021/03/23 06:54:20;;;;;;;0.38;0.17;;;8.80;66.20;;;;;;20799179;28;20399;-78
2021/03/23 07:04:33;;;;;;;0.10;0.10;;;8.80;66.30;;;;;;20841953;28;20199;-76
2021/03/23 07:14:38;;;;;;;0.38;0.30;;;8.80;66.30;;;;;;20819457;28;20021;-77
2021/03/23 07:24:56;;;;;;;0.30;0.20;;;8.90;66.40;;;;;;20896220;28;20056;-75
2021/03/23 07:35:25;;;;;;;0.38;0.20;;;8.80;66.40;;;;;;20848470;28;20041;-76
2021/03/23 07:46:06;;;;;;;0.60;0.53;;;8.80;66.50;;;;;;20792718;28;20056;-77
2021/03/23 07:56:43;;;;;;;0.08;0.08;;;8.80;66.50;;;;;;20829873;28;20049;-76
2021/03/23 08:07:20;;;;;;;0.10;0.10;;;8.80;66.60;;;;;;20773867;28;20037;-76
2021/03/23 08:17:31;;;;;;;0.70;0.35;;;8.80;66.60;;;;;;21229737;22;20049;-77
2021/03/23 08:28:00;;;;;;;0.20;0.20;;;8.80;66.50;;;;;;20810424;28;20041;-74
2021/03/23 08:38:15;;;;;;;0.20;0.17;;;8.80;66.60;;;;;;20812052;28;20123;-73
2021/03/23 08:48:25;;;;;;;1.55;0.40;;;8.80;66.60;;;;;;20809020;28;20403;-74
2021/03/23 08:58:39;;;;;;;0.45;0.20;;;8.80;66.60;;;;;;20754615;28;20076;-74
2021/03/23 09:08:43;;;;;;;0.10;0.10;;;8.80;66.60;;;;;;20807315;28;20037;-75
2021/03/23 09:19:12;;;;;;;2.58;0.30;;;8.80;66.60;;;;;;20782366;28;20054;-73
2021/03/23 09:29:34;;;;;;;0.90;0.73;;;8.80;66.60;;;;;;20740918;28;20033;-76
2021/03/23 09:39:35;;;;;;;0.20;0.20;;;8.80;66.60;;;;;;20710574;28;20038;-75
2021/03/23 09:49:49;;;;;;;0.03;0.03;;;8.80;66.60;;;;;;20746003;28;20041;-74
2021/03/23 09:59:53;;;;;;;1.23;0.28;;;8.80;66.70;;;;;;20808236;28;20029;-75
2021/03/23 10:09:54;;;;;;;0.55;0.20;;;8.80;66.60;;;;;;20791941;28;20095;-75
2021/03/23 10:19:58;;;;;;;0.20;0.20;;;8.80;66.60;;;;;;20758789;28;20042;-75
2021/03/23 10:30:14;;;;;;;0.43;0.30;;;8.80;66.60;;;;;;20745360;28;20092;-73
2021/03/23 10:40:35;;;;;;;0.10;0.10;;;8.80;66.50;;;;;;20737651;28;20096;-78
2021/03/23 10:50:39;;;;;;;2.90;0.43;;;8.80;66.50;;;;;;20812665;28;20076;-81
2021/03/23 11:00:41;;;;;;;0.30;0.20;;;8.90;66.60;;;;;;20783980;28;20052;-80
2021/03/23 11:10:43;;;;;;;1.00;0.20;;;8.80;66.50;;;;;;20838133;28;20045;-78
2021/03/23 11:20:47;;;;;;;1.23;0.50;;;8.90;66.60;;;;;;20793775;28;20056;-81
2021/03/23 11:30:47;;;;;;;1.48;0.30;;;8.90;66.50;;;;;;20756594;28;20034;-79
2021/03/23 11:40:53;;;;;;;3.30;0.52;;;8.90;66.60;;;;;;20706624;28;20124;-82
2021/03/23 11:50:55;;;;;;;0.60;0.50;;;8.90;66.60;;;;;;20804679;28;20045;-82
2021/03/23 12:00:55;;;;;;;1.55;0.68;;;8.90;66.60;;;;;;20816283;28;20073;-79
2021/03/23 12:11:05;;;;;;;0.82;0.47;;;8.90;66.60;;;;;;20788224;28;20532;-79
2021/03/23 12:21:06;;;;;;;0.25;0.25;;;8.90;66.60;;;;;;20809745;28;20045;-76
2021/03/23 12:31:06;;;;;;;2.17;0.98;;;8.90;66.50;;;;;;20817721;28;20435;-78
2021/03/23 12:41:14;;;;;;;0.43;0.22;;;8.90;66.50;;;;;;20751735;28;20038;-78
2021/03/23 12:51:40;;;;;;;1.10;0.50;;;8.90;66.50;;;;;;20770185;28;20036;-83
2021/03/23 13:01:44;;;;;;;2.17;0.50;;;8.90;66.50;;;;;;20814640;28;20132;-82
2021/03/23 13:11:47;;;;;;;0.32;0.32;;;8.90;66.50;;;;;;20794262;28;20044;-81
2021/03/23 13:21:59;;;;;;;1.48;0.65;;;9.00;66.40;;;;;;20775566;28;20042;-80
2021/03/23 13:32:01;;;;;;;0.30;0.30;;;8.90;66.40;;;;;;20709388;28;20065;-82
2021/03/23 13:42:13;;;;;;;0.10;0.10;;;8.90;66.40;;;;;;20752087;28;20041;-79
2021/03/23 13:52:24;;;;;;;1.23;0.50;;;9.00;66.40;;;;;;20815599;28;20469;-78
2021/03/23 14:02:25;;;;;;;0.40;0.35;;;9.00;66.30;;;;;;20755678;28;20391;-78
2021/03/23 14:12:26;;;;;;;4.28;1.70;;;8.90;66.30;;;;;;20804752;28;20095;-79
2021/03/23 14:22:30;;;;;;;1.35;0.80;;;9.00;66.30;;;;;;20803999;28;20045;-74
2021/03/23 14:32:30;;;;;;;0.88;0.45;;;9.00;66.30;;;;;;20813685;28;20068;-74
2021/03/23 14:42:31;;;;;;;1.27;1.00;;;9.00;66.30;;;;;;20805516;28;20030;-78
2021/03/23 14:52:31;;;;;;;2.40;0.98;;;9.10;66.40;;;;;;20723298;28;20045;-81
2021/03/23 15:02:32;;;;;;;0.57;0.50;;;9.10;66.30;;;;;;20761217;28;20037;-81
2021/03/23 15:12:33;;;;;;;6.05;0.80;;;9.00;66.30;;;;;;20761342;28;20327;-81
2021/03/23 15:22:33;;;;;;;1.45;1.08;;;9.10;66.40;;;;;;20748380;28;20095;-78
2021/03/23 15:32:35;;;;;;;1.48;0.98;;;9.10;66.50;;;;;;20749195;28;20041;-79
2021/03/23 15:42:36;;;;;;;1.40;0.68;;;9.10;66.50;;;;;;20788271;28;20091;-79
2021/03/23 15:52:37;;;;;;;2.53;1.00;;;9.20;66.60;;;;;;20815966;28;20033;-76
2021/03/23 16:02:38;;;;;;;3.55;1.25;;;9.20;66.50;;;;;;20816451;28;20041;-79
2021/03/23 16:12:39;;;;;;;1.73;0.57;;;9.30;66.50;;;;;;20787407;28;20033;-80
2021/03/23 16:22:39;;;;;;;3.60;1.23;;;9.30;66.30;;;;;;20795503;28;20053;-75
2021/03/23 16:32:41;;;;;;;0.98;0.73;;;9.30;66.30;;;;;;20747573;28;20184;-79
2021/03/23 16:42:42;;;;;;;1.77;0.95;;;9.40;66.20;;;;;;20820657;28;20034;-79
2021/03/23 16:52:43;;;;;;;2.15;1.35;;;9.40;66.20;;;;;;20725315;28;20187;-76
2021/03/23 17:02:44;;;;;;;1.13;1.00;;;9.40;66.10;;;;;;20805032;28;20037;-76
2021/03/23 17:12:44;;;;;;;2.13;0.80;;;9.30;66.00;;;;;;20802533;28;20040;-73
2021/03/23 17:22:46;;;;;;;2.28;0.93;;;9.30;66.10;;;;;;20802887;28;20124;-74
2021/03/23 17:32:47;;;;;;;2.55;1.05;;;9.20;66.10;;;;;;20808964;28;20041;-78
2021/03/23 17:42:47;;;;;;;1.83;1.13;;;9.20;66.20;;;;;;20876264;28;20048;-75
2021/03/23 17:52:51;;;;;;;1.42;1.00;;;9.20;66.30;;;;;;20825898;28;20123;-75
2021/03/23 18:02:52;;;;;;;0.93;0.88;;;9.20;66.40;;;;;;20793803;28;20037;-77
2021/03/23 18:12:56;;;;;;;2.65;0.85;;;9.10;66.50;;;;;;20811754;28;20132;-77
2021/03/23 18:22:57;;;;;;;1.13;0.73;;;9.10;66.50;;;;;;20778468;28;20038;-77
2021/03/23 18:33:07;;;;;;;2.70;0.77;;;9.10;66.60;;;;;;20712850;28;20046;-77
2021/03/23 18:43:07;;;;;;;2.17;0.70;;;9.10;66.70;;;;;;20744786;28;20105;-77
2021/03/23 18:53:10;;;;;;;1.27;1.08;;;9.10;66.70;;;;;;20743262;28;20112;-76
2021/03/23 19:03:14;;;;;;;2.92;1.58;;;9.10;66.80;;;;;;20744892;28;20037;-78
2021/03/23 19:13:18;;;;;;;1.08;0.90;;;9.00;66.70;;;;;;20733123;28;20038;-78
2021/03/23 19:23:24;;;;;;;2.42;1.52;;;9.00;66.70;;;;;;20773132;28;20121;-76
2021/03/23 19:33:26;;;;;;;0.82;0.55;;;9.10;66.80;;;;;;20763690;28;20041;-77
2021/03/23 19:43:30;;;;;;;2.15;0.88;;;9.00;66.70;;;;;;20769243;28;20065;-76
2021/03/23 19:53:31;;;;;;;1.10;0.90;;;9.00;66.70;;;;;;20808937;28;20037;-76
2021/03/23 20:03:32;;;;;;;3.60;1.23;;;9.00;66.70;;;;;;20798437;28;20034;-78
2021/03/23 20:13:33;;;;;;;2.08;1.40;;;9.00;66.60;;;;;;20802277;28;20499;-75
2021/03/23 20:23:39;;;;;;;1.50;0.73;;;9.00;66.60;;;;;;20776132;28;20288;-77
2021/03/23 20:33:44;;;;;;;2.95;1.33;;;9.00;66.60;;;;;;20797157;28;20080;-75
2021/03/23 20:43:46;;;;;;;2.33;1.48;;;9.00;66.60;;;;;;20818023;28;20034;-75
2021/03/23 20:53:50;;;;;;;3.85;1.33;;;8.90;66.50;;;;;;20811793;28;20037;-76
2021/03/23 21:03:51;;;;;;;2.38;1.60;;;8.90;66.50;;;;;;20795911;28;20490;-77
2021/03/23 21:13:54;;;;;;;0.73;0.55;;;8.90;66.50;;;;;;20825521;28;20128;-76
2021/03/23 21:23:55;;;;;;;1.88;1.40;;;9.00;67.20;;;;;;20808990;28;20506;-78
2021/03/23 21:33:56;;;;;;;2.75;1.50;;;9.00;66.50;;;;;;20792573;28;20063;-77
2021/03/23 21:43:56;;;;;;;1.10;0.90;;;8.90;66.40;;;;;;20807642;28;20499;-78
2021/03/23 21:53:58;;;;;;;2.23;1.10;;;8.90;66.40;;;;;;20804213;28;20454;-77
2021/03/23 22:03:59;;;;;;;2.38;1.73;;;8.90;66.40;;;;;;20804000;28;20307;-77
2021/03/23 22:14:00;;;;;;;1.70;0.80;;;8.90;66.40;;;;;;20805937;28;20053;-76
2021/03/23 22:24:01;;;;;;;2.00;1.40;;;9.00;66.40;;;;;;20790374;28;20055;-76
2021/03/23 22:34:02;;;;;;;2.85;1.77;;;8.90;66.30;;;;;;20790628;28;20479;-75
2021/03/23 22:44:04;;;;;;;2.20;1.10;;;8.90;66.30;;;;;;20805059;28;20042;-76
2021/03/23 22:54:05;;;;;;;3.65;1.40;;;8.90;66.30;;;;;;20822342;28;20523;-75
2021/03/23 23:04:07;;;;;;;4.03;1.73;;;8.90;66.30;;;;;;20837857;28;20044;-76
2021/03/23 23:14:09;;;;;;;1.45;1.02;;;8.90;66.30;;;;;;20820027;28;20052;-75
2021/03/23 23:24:19;;;;;;;1.55;1.00;;;8.90;66.30;;;;;;20819966;28;20033;-76
2021/03/23 23:34:22;;;;;;;4.30;1.27;;;8.90;66.30;;;;;;20819427;28;20034;-77
2021/03/23 23:44:23;;;;;;;3.05;1.05;;;8.90;66.40;;;;;;20818490;28;20048;-74
2021/03/23 23:54:25;;;;;;;2.08;1.60;;;8.90;67.00;;;;;;20817954;28;20413;-77
